createdAt,value
2022-09-27T00:00:49.336Z,25.70
2022-09-27T00:03:40.206Z,24.27
2022-09-27T00:06:20.640Z,26.60
2022-09-27T00:12:49.285Z,39.47
2022-09-27T00:16:18.820Z,26.45
2022-09-27T00:24:09.703Z,27.15
2022-09-27T00:27:03.036Z,29.75
2022-09-27T00:29:46.460Z,28.67
2022-09-27T00:32:18.580Z,32.63
2022-09-27T00:35:54.331Z,27.63
2022-09-27T00:39:08.029Z,28.63
2022-09-27T00:42:20.952Z,29.80
2022-09-27T00:51:38.509Z,30.80
2022-09-27T01:05:37.329Z,29.30
2022-09-27T01:08:06.466Z,28.50
2022-09-27T01:10:56.476Z,28.42
2022-09-27T01:13:35.197Z,31.45
2022-09-27T01:16:15.742Z,31.00
2022-09-27T01:19:04.198Z,31.30
2022-09-27T01:21:54.343Z,31.77
2022-09-27T01:24:48.498Z,30.75
2022-09-27T01:28:00.737Z,29.33
2022-09-27T01:30:42.000Z,29.42
2022-09-27T01:33:19.641Z,32.33
2022-09-27T01:36:12.401Z,29.98
2022-09-27T01:39:31.621Z,31.02
2022-09-27T01:42:34.031Z,29.42
2022-09-27T01:45:07.634Z,28.25
2022-09-27T01:47:59.610Z,27.80
2022-09-27T01:51:15.266Z,27.73
2022-09-27T01:53:48.804Z,32.70
2022-09-27T01:56:31.714Z,29.42
2022-09-27T01:59:12.436Z,30.15
2022-09-27T02:02:04.145Z,29.65
2022-09-27T02:05:10.787Z,32.80
2022-09-27T02:07:55.167Z,31.90
2022-09-27T02:10:34.675Z,31.75
2022-09-27T02:13:28.489Z,36.40
2022-09-27T02:19:08.482Z,39.40
2022-09-27T02:22:10.511Z,51.63
2022-09-27T02:24:47.538Z,55.30
2022-09-27T02:27:25.162Z,33.78
2022-09-27T02:30:07.010Z,34.85
2022-09-27T02:32:40.779Z,42.95
2022-09-27T02:35:31.680Z,53.17
2022-09-27T02:38:02.213Z,50.35
2022-09-27T02:40:33.949Z,105.32
2022-09-27T02:43:16.319Z,55.08
2022-09-27T02:45:48.017Z,45.83
2022-09-27T02:48:21.753Z,92.88
2022-09-27T02:51:06.986Z,39.53
2022-09-27T02:53:46.044Z,88.97
2022-09-27T02:56:49.258Z,43.70
2022-09-27T02:59:39.206Z,40.85
2022-09-27T03:03:02.954Z,59.95
2022-09-27T03:05:45.066Z,47.60
2022-09-27T03:08:16.336Z,38.57
2022-09-27T03:10:51.741Z,61.40
2022-09-27T03:13:20.379Z,39.33
2022-09-27T03:16:03.145Z,73.68
2022-09-27T03:18:59.149Z,39.90
2022-09-27T03:22:06.219Z,62.88
2022-09-27T03:24:35.155Z,89.03
2022-09-27T03:27:04.182Z,51.30
2022-09-27T03:29:35.704Z,39.45
2022-09-27T03:32:12.016Z,61.58
2022-09-27T03:35:15.925Z,47.03
2022-09-27T03:37:47.459Z,86.10
2022-09-27T03:40:18.468Z,113.07
2022-09-27T03:42:49.796Z,35.65
2022-09-27T03:45:20.115Z,84.78
2022-09-27T03:47:52.741Z,64.07
2022-09-27T03:50:25.020Z,89.57
2022-09-27T03:53:01.143Z,159.35
2022-09-27T03:55:39.706Z,75.78
2022-09-27T03:58:12.362Z,75.53
2022-09-27T04:00:44.256Z,109.20
2022-09-27T04:03:13.633Z,122.10
2022-09-27T04:06:03.699Z,43.10
2022-09-27T04:08:41.125Z,37.53
2022-09-27T04:11:17.910Z,129.05
2022-09-27T04:13:49.750Z,189.43
2022-09-27T04:16:21.732Z,62.15
2022-09-27T04:19:16.651Z,76.07
2022-09-27T04:22:03.098Z,70.32
2022-09-27T04:24:34.205Z,44.70
2022-09-27T04:27:23.801Z,83.55
2022-09-27T04:30:03.840Z,52.72
2022-09-27T04:32:57.068Z,42.00
2022-09-27T04:36:03.195Z,71.60
2022-09-27T04:38:33.611Z,127.78
2022-09-27T04:41:05.598Z,57.22
2022-09-27T04:43:56.775Z,73.97
2022-09-27T04:46:31.892Z,47.70
2022-09-27T04:49:06.387Z,49.70
2022-09-27T04:51:38.659Z,100.53
2022-09-27T04:54:15.552Z,82.80
2022-09-27T04:56:56.381Z,116.82
2022-09-27T04:59:28.117Z,85.28
2022-09-27T05:02:03.210Z,55.00
2022-09-27T05:04:47.245Z,83.75
2022-09-27T05:07:23.421Z,107.95
2022-09-27T05:10:09.116Z,85.45
2022-09-27T05:12:44.023Z,82.55
2022-09-27T05:15:18.515Z,34.67
2022-09-27T05:17:49.107Z,56.60
2022-09-27T05:20:41.290Z,38.63
2022-09-27T05:23:25.636Z,45.75
2022-09-27T05:26:33.774Z,37.05
2022-09-27T05:29:12.288Z,67.35
2022-09-27T05:31:44.800Z,38.42
2022-09-27T05:34:13.440Z,40.35
2022-09-27T05:36:50.491Z,65.60
2022-09-27T05:39:28.309Z,52.58
2022-09-27T05:42:01.226Z,66.38
2022-09-27T05:44:29.955Z,48.88
2022-09-27T05:47:07.027Z,43.55
2022-09-27T05:49:37.335Z,50.30
2022-09-27T05:52:10.959Z,36.47
2022-09-27T05:54:42.265Z,50.88
2022-09-27T05:57:11.851Z,38.05
2022-09-27T05:59:48.188Z,31.02
2022-09-27T06:02:38.578Z,60.35
2022-09-27T06:05:10.949Z,67.43
2022-09-27T06:07:44.554Z,42.90
2022-09-27T06:10:23.929Z,52.55
2022-09-27T06:12:59.339Z,57.60
2022-09-27T06:15:39.354Z,33.90
2022-09-27T06:18:12.935Z,31.02
2022-09-27T06:20:43.508Z,27.83
2022-09-27T06:23:15.183Z,26.70
2022-09-27T06:25:47.221Z,26.90
2022-09-27T06:28:35.879Z,37.15
2022-09-27T06:31:09.211Z,34.38
2022-09-27T06:33:53.394Z,29.33
2022-09-27T06:36:23.486Z,32.60
2022-09-27T06:38:51.915Z,27.15
2022-09-27T06:41:29.793Z,29.13
2022-09-27T06:44:17.326Z,30.05
2022-09-27T06:47:17.787Z,38.60
2022-09-27T06:50:05.948Z,27.95
2022-09-27T06:52:49.076Z,27.00
2022-09-27T06:55:17.765Z,25.85
2022-09-27T06:58:05.264Z,25.58
2022-09-27T07:00:33.959Z,31.52
2022-09-27T07:03:38.921Z,29.15
2022-09-27T07:06:40.647Z,32.22
2022-09-27T07:09:28.266Z,25.75
2022-09-27T07:11:58.898Z,27.23
2022-09-27T07:14:34.091Z,24.92
2022-09-27T07:17:04.581Z,23.02
2022-09-27T07:19:41.360Z,31.52
2022-09-27T07:22:14.687Z,23.92
2022-09-27T07:24:45.989Z,26.98
2022-09-27T07:27:15.980Z,27.23
2022-09-27T07:29:52.162Z,24.67
2022-09-27T07:32:21.391Z,22.52
2022-09-27T07:34:59.295Z,22.58
2022-09-27T07:37:30.346Z,24.00
2022-09-27T07:40:01.051Z,24.35
2022-09-27T07:42:39.186Z,23.65
2022-09-27T07:45:10.414Z,22.83
2022-09-27T07:48:21.341Z,23.55
2022-09-27T07:51:04.570Z,23.20
2022-09-27T07:54:07.900Z,25.35
2022-09-27T07:56:38.392Z,25.33
2022-09-27T07:59:13.067Z,22.92
2022-09-27T08:01:49.812Z,23.23
2022-09-27T08:04:21.204Z,23.60
2022-09-27T08:06:50.306Z,24.15
2022-09-27T08:09:24.276Z,23.77
2022-09-27T08:12:00.237Z,23.90
2022-09-27T08:14:31.357Z,24.58
2022-09-27T08:17:00.293Z,24.02
2022-09-27T08:19:30.262Z,23.30
2022-09-27T08:22:08.857Z,26.10
2022-09-27T08:24:49.625Z,25.00
2022-09-27T08:27:26.703Z,26.30
2022-09-27T08:30:00.958Z,54.25
2022-09-27T08:32:31.038Z,24.75
2022-09-27T08:35:06.589Z,25.75
2022-09-27T08:37:37.411Z,25.83
2022-09-27T08:40:18.603Z,30.67
2022-09-27T08:43:03.509Z,29.05
2022-09-27T08:45:41.541Z,29.17
2022-09-27T08:48:12.204Z,31.27
2022-09-27T08:51:05.456Z,35.80
2022-09-27T08:53:42.807Z,28.17
2022-09-27T08:56:14.211Z,27.33
2022-09-27T08:59:07.922Z,29.05
2022-09-27T09:01:42.253Z,31.35
2022-09-27T09:04:30.088Z,30.02
2022-09-27T09:07:13.498Z,29.73
2022-09-27T09:09:56.934Z,31.60
2022-09-27T09:12:56.983Z,36.03
2022-09-27T09:19:12.444Z,38.17
2022-09-27T09:22:17.198Z,37.72
2022-09-27T09:25:07.546Z,45.50
2022-09-27T09:27:59.007Z,42.53
2022-09-27T09:30:48.644Z,44.38
2022-09-27T09:33:24.365Z,43.65
2022-09-27T09:36:07.245Z,43.13
2022-09-27T09:38:59.319Z,45.45
2022-09-27T09:41:54.056Z,43.60
2022-09-27T09:44:29.068Z,43.10
2022-09-27T09:47:09.358Z,42.42
2022-09-27T09:49:48.260Z,53.03
2022-09-27T09:52:25.345Z,65.43
2022-09-27T09:55:21.506Z,51.50
2022-09-27T09:57:59.652Z,52.08
2022-09-27T10:00:32.653Z,40.08
2022-09-27T10:03:06.071Z,41.63
2022-09-27T10:05:36.817Z,36.25
2022-09-27T10:08:18.766Z,40.08
2022-09-27T10:10:52.296Z,41.42
2022-09-27T10:13:27.018Z,36.22
2022-09-27T10:16:06.465Z,34.50
2022-09-27T10:18:47.632Z,34.08
2022-09-27T10:21:30.871Z,33.63
2022-09-27T10:24:25.669Z,31.25
2022-09-27T10:27:07.649Z,29.98
2022-09-27T10:29:39.798Z,27.60
2022-09-27T10:32:36.231Z,30.00
2022-09-27T10:35:30.618Z,28.80
2022-09-27T10:38:18.160Z,28.70
2022-09-27T10:40:53.181Z,32.08
2022-09-27T10:43:41.131Z,27.05
2022-09-27T10:46:34.966Z,30.38
2022-09-27T10:49:40.703Z,27.55
2022-09-27T10:52:28.570Z,32.00
2022-09-27T10:55:08.549Z,27.45
2022-09-27T10:57:45.157Z,35.67
2022-09-27T11:00:32.583Z,30.80
2022-09-27T11:03:08.150Z,36.00
2022-09-27T11:05:39.743Z,37.00
2022-09-27T11:08:30.256Z,36.08
2022-09-27T11:11:29.050Z,30.77
2022-09-27T11:14:08.989Z,28.73
2022-09-27T11:17:09.760Z,27.10
2022-09-27T11:20:03.813Z,34.38
2022-09-27T11:23:08.083Z,36.33
2022-09-27T11:26:02.913Z,32.03
2022-09-27T11:29:14.025Z,35.67
2022-09-27T11:32:44.512Z,34.97
2022-09-27T11:35:47.589Z,31.23
2022-09-27T11:38:52.215Z,36.38
2022-09-27T11:41:30.587Z,33.05
2022-09-27T11:44:24.774Z,25.38
2022-09-27T11:47:23.689Z,26.90
2022-09-27T11:50:11.391Z,26.85
2022-09-27T11:53:11.440Z,38.70
2022-09-27T11:55:52.069Z,25.45
2022-09-27T11:58:42.103Z,45.65
2022-09-27T12:01:42.726Z,24.63
2022-09-27T12:04:34.304Z,23.80
2022-09-27T12:07:23.215Z,25.02
2022-09-27T12:10:18.213Z,26.23
2022-09-27T12:12:56.046Z,23.95
2022-09-27T12:15:32.629Z,23.60
2022-09-27T12:18:26.317Z,25.98
2022-09-27T12:21:00.729Z,27.30
2022-09-27T12:23:40.093Z,27.27
2022-09-27T12:26:43.087Z,29.70
2022-09-27T12:29:18.539Z,28.63
2022-09-27T12:32:04.361Z,32.33
2022-09-27T12:34:48.088Z,24.95
2022-09-27T12:37:58.930Z,24.20
2022-09-27T12:40:37.573Z,26.75
2022-09-27T12:43:26.471Z,24.50
2022-09-27T12:46:25.317Z,26.88
2022-09-27T12:49:39.618Z,25.67
2022-09-27T12:52:22.818Z,30.67
2022-09-27T12:55:17.272Z,29.27
2022-09-27T12:58:15.360Z,25.13
2022-09-27T13:01:33.979Z,28.48
2022-09-27T13:04:22.278Z,27.25
2022-09-27T13:07:13.371Z,26.08
2022-09-27T13:10:29.544Z,27.45
2022-09-27T13:13:02.918Z,27.67
2022-09-27T13:15:34.511Z,26.98
2022-09-27T13:18:47.989Z,29.08
2022-09-27T13:21:52.351Z,28.05
2022-09-27T13:24:54.463Z,29.80
2022-09-27T13:27:54.517Z,36.75
2022-09-27T13:30:40.673Z,31.17
2022-09-27T13:33:49.967Z,30.73
2022-09-27T13:36:40.430Z,31.15
2022-09-27T13:39:14.874Z,37.00
2022-09-27T13:42:35.516Z,36.13
2022-09-27T13:45:24.916Z,39.63
2022-09-27T13:48:12.201Z,31.27
2022-09-27T13:51:00.315Z,30.35
2022-09-27T13:53:39.342Z,39.15
2022-09-27T13:56:48.182Z,35.42
2022-09-27T13:59:44.456Z,32.65
2022-09-27T14:02:43.488Z,38.38
2022-09-27T14:05:18.389Z,28.85
2022-09-27T14:07:49.328Z,27.65
2022-09-27T14:13:16.253Z,29.83
2022-09-27T14:15:58.718Z,23.05
2022-09-27T14:18:44.173Z,28.13
2022-09-27T14:21:33.145Z,25.20
2022-09-27T14:24:51.211Z,28.88
2022-09-27T14:30:35.672Z,27.02
2022-09-27T14:33:32.839Z,25.40
2022-09-27T14:36:37.026Z,24.65
2022-09-27T14:39:27.004Z,22.33
2022-09-27T14:41:57.518Z,22.45
2022-09-27T14:44:28.361Z,18.83
2022-09-27T14:47:09.700Z,24.58
2022-09-27T14:49:51.608Z,23.65
2022-09-27T14:52:29.309Z,24.05
2022-09-27T14:55:21.200Z,21.20
2022-09-27T14:57:58.628Z,19.00
2022-09-27T15:00:34.964Z,19.48
2022-09-27T15:03:09.373Z,25.70
2022-09-27T15:05:43.671Z,24.48
2022-09-27T15:08:15.837Z,23.13
2022-09-27T15:10:46.730Z,19.65
2022-09-27T15:13:28.840Z,16.83
2022-09-27T15:16:35.200Z,15.88
2022-09-27T15:36:45.018Z,17.73
2022-09-27T15:39:28.471Z,22.60
2022-09-27T15:42:11.378Z,23.48
2022-09-27T15:44:50.838Z,21.17
2022-09-27T15:47:59.667Z,28.63
2022-09-27T15:50:48.558Z,41.22
2022-09-27T15:53:36.080Z,20.70
2022-09-27T15:56:09.149Z,19.67
2022-09-27T15:58:42.077Z,20.65
2022-09-27T16:01:44.549Z,19.00
2022-09-27T16:04:59.954Z,18.55
2022-09-27T16:08:16.823Z,19.33
2022-09-27T16:10:55.474Z,25.02
2022-09-27T16:19:53.393Z,25.67
2022-09-27T16:29:58.489Z,25.20
2022-09-27T16:32:48.511Z,31.83
2022-09-27T16:35:30.051Z,22.27
2022-09-27T16:46:19.630Z,41.78
2022-09-27T16:58:35.345Z,77.57
2022-09-27T17:15:15.007Z,40.97
2022-09-27T17:18:34.935Z,39.25
2022-09-27T17:24:14.538Z,81.65
2022-09-27T17:39:19.323Z,38.13
2022-09-27T17:42:35.630Z,31.60
2022-09-27T17:45:06.266Z,43.15
2022-09-27T17:48:04.536Z,47.70
2022-09-27T17:50:39.866Z,32.38
2022-09-27T17:53:16.931Z,42.22
2022-09-27T17:55:45.904Z,32.33
2022-09-27T18:05:46.241Z,39.17
2022-09-27T18:08:21.761Z,32.70
2022-09-27T18:35:29.493Z,25.98
2022-09-27T18:37:59.126Z,64.35
2022-09-27T18:40:57.616Z,35.42
2022-09-27T18:43:29.263Z,22.85
2022-09-27T18:46:23.843Z,29.38
2022-09-27T18:49:16.965Z,25.73
2022-09-27T18:51:54.695Z,21.77
2022-09-27T18:54:41.081Z,21.00
2022-09-27T18:57:11.874Z,22.83
2022-09-27T19:06:20.271Z,21.77
2022-09-27T19:15:27.557Z,23.00
2022-09-27T19:18:04.616Z,19.52
2022-09-27T19:23:28.216Z,22.35
2022-09-27T19:26:16.089Z,19.10
2022-09-27T19:29:04.453Z,21.38
2022-09-27T19:31:44.245Z,20.63
2022-09-27T19:34:14.392Z,18.45
2022-09-27T19:36:46.536Z,16.98
2022-09-27T19:39:15.954Z,19.85
2022-09-27T19:41:52.874Z,19.52
2022-09-27T19:44:22.814Z,17.20
2022-09-27T19:46:51.702Z,18.55
2022-09-27T19:49:20.621Z,19.48
2022-09-27T19:51:52.375Z,19.83
2022-09-27T19:54:22.541Z,16.77
2022-09-27T19:56:51.665Z,19.60
2022-09-27T19:59:24.938Z,17.27
2022-09-27T20:01:59.992Z,19.15
2022-09-27T20:04:42.448Z,20.80
2022-09-27T20:07:18.839Z,19.77
2022-09-27T20:16:19.367Z,20.95
2022-09-27T20:18:52.679Z,20.70
2022-09-27T20:21:34.090Z,21.75
2022-09-27T20:24:12.535Z,22.25
2022-09-27T20:26:45.455Z,23.00
2022-09-27T20:29:18.779Z,23.50
2022-09-27T20:32:25.496Z,21.83
2022-09-27T20:34:46.325Z,21.60
2022-09-27T20:37:17.360Z,21.65
2022-09-27T20:39:50.403Z,20.63
2022-09-27T20:42:21.466Z,20.65
2022-09-27T20:44:57.270Z,22.33
2022-09-27T20:47:39.863Z,24.08
2022-09-27T20:53:00.686Z,22.48
2022-09-27T20:55:39.138Z,23.58
2022-09-27T20:58:12.369Z,22.15
2022-09-27T21:00:42.142Z,25.63
2022-09-27T21:03:16.267Z,23.65
2022-09-27T21:06:00.649Z,24.38
2022-09-27T21:08:40.758Z,23.17
2022-09-27T21:11:25.459Z,21.35
2022-09-27T21:13:56.476Z,22.05
2022-09-27T21:16:34.917Z,22.58
2022-09-27T21:19:05.140Z,22.83
2022-09-27T21:21:46.147Z,23.58
2022-09-27T21:24:32.387Z,21.77
2022-09-27T21:27:21.204Z,23.13
2022-09-27T21:30:06.518Z,22.52
2022-09-27T21:32:38.285Z,22.70
2022-09-27T21:35:12.539Z,26.90
2022-09-27T21:37:47.363Z,31.45
2022-09-27T21:40:27.524Z,31.60
2022-09-27T21:42:57.988Z,33.50
2022-09-27T21:45:30.820Z,35.90
2022-09-27T21:48:01.135Z,38.20
2022-09-27T21:50:37.126Z,35.45
2022-09-27T21:53:08.491Z,40.33
2022-09-27T21:55:56.884Z,47.00
2022-09-27T21:58:38.626Z,30.02
2022-09-27T22:01:30.460Z,31.63
2022-09-27T22:04:10.935Z,29.10
2022-09-27T22:06:40.508Z,26.55
2022-09-27T22:09:14.221Z,31.88
2022-09-27T22:11:48.091Z,30.98
2022-09-27T22:14:20.840Z,26.73
2022-09-27T22:16:59.868Z,29.75
2022-09-27T22:19:36.366Z,30.13
2022-09-27T22:22:05.472Z,31.42
2022-09-27T22:24:35.959Z,27.10
2022-09-27T22:27:13.706Z,23.90
2022-09-27T22:29:45.583Z,26.13
2022-09-27T22:32:18.553Z,23.20
2022-09-27T22:34:53.710Z,24.75
2022-09-27T22:37:29.423Z,22.48
2022-09-27T22:40:07.430Z,23.30
2022-09-27T22:42:45.532Z,25.15
2022-09-27T22:45:24.614Z,25.67
2022-09-27T22:48:02.194Z,27.10
2022-09-27T22:50:38.575Z,29.05
2022-09-27T22:53:09.911Z,26.95
2022-09-27T22:55:44.195Z,27.77
2022-09-27T22:58:21.917Z,31.98
2022-09-27T23:01:08.617Z,24.30
2022-09-27T23:03:50.960Z,26.95
2022-09-27T23:06:21.610Z,27.40
2022-09-27T23:08:58.358Z,23.85
2022-09-27T23:11:49.412Z,25.35
2022-09-27T23:14:33.967Z,25.05
2022-09-27T23:17:13.195Z,25.73
2022-09-27T23:19:50.498Z,22.48
2022-09-27T23:22:29.022Z,22.45
2022-09-27T23:25:17.104Z,24.33
2022-09-27T23:27:54.204Z,22.67
2022-09-27T23:30:33.434Z,22.23
2022-09-27T23:33:09.555Z,24.23
2022-09-27T23:35:41.720Z,23.08
2022-09-27T23:38:21.804Z,24.23
2022-09-27T23:40:55.308Z,23.60
2022-09-27T23:43:28.993Z,22.85
2022-09-27T23:46:14.695Z,22.98
2022-09-27T23:49:07.884Z,23.90
2022-09-27T23:51:42.658Z,24.85
2022-09-27T23:54:15.067Z,23.27
2022-09-27T23:56:53.842Z,23.77
2022-09-27T23:59:40.374Z,24.23
